Hauptseite
METAR-TAF:

METAR-TAF

Flughäfen :

RAF Benson

Benson, England

Breite: 51-37N, Länge: 001-05W, Höhe: 63 m

Beobachtung

Neuester Wetterbericht von vor 22 Minuten, um 20:50 UTC
Wind 7 kt aus Süd
Temperatur 1°C
Luftfeuchtigkeit 100%
Luftdruck 1003 hPa
Sichtweite 10 km oder mehr

METAR: EGUB 162050Z AUTO 18007KT 9999 // NCD 01/01 Q1003

Zeit: 21:12 (21:12 UTC)

Prognose

Neuester Wetterbericht von vor 4 Stunden und 48 Minuten, um 16:24 UTC
Gültige Prognose vom 16 um 18 UTC bis 16 um 23 UTC
Wind 8 kt aus West/Südwest
Sichtweite 10 km oder mehr
Leicht bewölkt in der Höhe von 3500 ft

TAF: EGUB 161624Z 1618/1623 24008KT 9999 FEW035

Wetterbeobachtungen und Prognosen von mehr als 4000 Flughäfen (METAR und TAF Bericht).

Die verfügbaren Stationen werden durch gelbe und rote Markierungen auf der Karte dargestellt.

Führen Sie die Maus auf sie, um den Namen der Station zu sehen.

Darauf klicken, um die Beobachtung von Wetterbeobachtungen und Prognosen zu sehen.

Um die Karte zu ändern : klicken Sie auf den grünen Tasten mit einem schwarzen Kreuz Zum Vergrößern, auf den grünen Button mit einem Gedankenstrich zu verkleinern, oder auf die grünen Pfeile für benachbarte Karten.


METAR-TAF: